Time;durP1;ratioP1;P1;durP2;ratioP2;P2;SDS_P1;SDS_P2;PMS_P1;PMS_P2;Temp;Humidity;BMP_temperature;BMP_pressure;BME280_temperature;BME280_humidity;BME280_pressure;Samples;Min_cycle;Max_cycle;Signal;HPM_P1;HPM_P2
2023/04/11 00:00:51;;;;;;;2.80;1.70;;;24.10;43.60;;;;;;5042109;28;20022;-61
2023/04/11 00:03:18;;;;;;;2.70;1.70;;;24.10;43.60;;;;;;5039814;28;20045;-61
2023/04/11 00:05:45;;;;;;;2.55;1.60;;;24.10;43.70;;;;;;5041954;28;20511;-61
2023/04/11 00:08:10;;;;;;;3.10;1.77;;;24.00;43.60;;;;;;5040217;28;20030;-60
2023/04/11 00:10:36;;;;;;;2.88;1.52;;;24.00;43.60;;;;;;5041187;28;20032;-61
2023/04/11 00:13:02;;;;;;;2.67;1.70;;;24.00;43.60;;;;;;5039811;28;20200;-61
2023/04/11 00:15:27;;;;;;;2.53;1.85;;;24.00;43.70;;;;;;5042000;28;20078;-60
2023/04/11 00:17:53;;;;;;;2.20;1.40;;;24.00;43.70;;;;;;5043267;28;20103;-60
2023/04/11 00:20:19;;;;;;;3.00;1.80;;;23.90;43.60;;;;;;5040622;28;20030;-61
2023/04/11 00:22:45;;;;;;;3.15;1.70;;;23.90;43.60;;;;;;5042436;28;20404;-60
2023/04/11 00:25:11;;;;;;;2.50;1.75;;;23.90;43.70;;;;;;5042879;28;20029;-61
2023/04/11 00:27:36;;;;;;;2.13;1.42;;;23.90;43.70;;;;;;5040694;28;20481;-62
2023/04/11 00:30:04;;;;;;;2.78;1.67;;;23.90;43.70;;;;;;5049654;28;20029;-61
2023/04/11 00:32:29;;;;;;;2.30;1.67;;;23.90;43.80;;;;;;5038311;28;20088;-60
2023/04/11 00:34:55;;;;;;;2.60;1.50;;;23.80;43.70;;;;;;5041096;28;20032;-60
2023/04/11 00:37:21;;;;;;;2.47;1.60;;;23.80;43.80;;;;;;5039981;28;20515;-60
2023/04/11 00:39:51;;;;;;;2.90;1.70;;;23.80;43.80;;;;;;5043108;28;20020;-61
2023/04/11 00:42:18;;;;;;;2.13;1.60;;;23.70;43.80;;;;;;5037296;28;20071;-61
2023/04/11 00:44:44;;;;;;;2.35;1.45;;;23.80;43.80;;;;;;5041272;28;20474;-61
2023/04/11 00:47:10;;;;;;;2.60;1.60;;;23.70;43.80;;;;;;5042327;28;20025;-60
2023/04/11 00:49:37;;;;;;;2.47;1.40;;;23.70;43.80;;;;;;5041500;28;20442;-61
2023/04/11 00:52:04;;;;;;;2.38;1.70;;;23.70;43.80;;;;;;5038478;28;20054;-61
2023/04/11 00:54:30;;;;;;;2.42;1.45;;;23.70;43.80;;;;;;5041941;28;20036;-62
2023/04/11 00:57:01;;;;;;;2.65;1.60;;;23.70;43.90;;;;;;5042896;28;20539;-61
2023/04/11 00:59:28;;;;;;;2.50;1.73;;;23.60;43.80;;;;;;5041019;28;20105;-61
2023/04/11 01:01:54;;;;;;;2.25;1.60;;;23.60;43.90;;;;;;5039232;28;20572;-61
2023/04/11 01:04:20;;;;;;;2.17;1.58;;;23.60;43.80;;;;;;5040554;28;20030;-61
2023/04/11 01:06:51;;;;;;;2.10;1.55;;;23.60;43.90;;;;;;5038427;28;20377;-61
2023/04/11 01:09:23;;;;;;;2.25;1.65;;;23.60;44.40;;;;;;5039398;28;20028;-62
2023/04/11 01:11:49;;;;;;;2.05;1.48;;;23.50;43.90;;;;;;5039845;28;20381;-61
2023/04/11 01:14:19;;;;;;;2.60;1.60;;;23.50;43.90;;;;;;5041975;28;20040;-61
2023/04/11 01:16:49;;;;;;;2.45;1.55;;;23.50;43.90;;;;;;5040965;28;20028;-61
2023/04/11 01:19:19;;;;;;;2.13;1.55;;;23.50;43.90;;;;;;5038413;28;20485;-61
2023/04/11 01:21:48;;;;;;;1.98;1.38;;;23.50;44.00;;;;;;5039656;28;20491;-61
2023/04/11 01:24:14;;;;;;;2.38;1.60;;;23.50;44.00;;;;;;5042317;28;20043;-60
2023/04/11 01:26:39;;;;;;;1.95;1.40;;;23.50;44.10;;;;;;5041482;28;20417;-60
2023/04/11 01:29:05;;;;;;;3.50;1.63;;;23.50;44.00;;;;;;5043045;28;20021;-61
2023/04/11 01:31:33;;;;;;;2.10;1.55;;;23.40;44.00;;;;;;5041167;28;20044;-61
2023/04/11 01:34:00;;;;;;;2.30;1.50;;;23.40;44.00;;;;;;5039568;28;20026;-61
2023/04/11 01:36:27;;;;;;;2.05;1.50;;;23.40;44.00;;;;;;5041856;28;20033;-62
2023/04/11 01:38:58;;;;;;;2.63;1.67;;;23.40;44.00;;;;;;5042546;28;20537;-60
2023/04/11 01:41:25;;;;;;;2.35;1.48;;;23.40;44.00;;;;;;5041141;28;20061;-61
2023/04/11 01:43:51;;;;;;;2.13;1.50;;;23.40;44.10;;;;;;5040232;28;20545;-61
2023/04/11 01:46:17;;;;;;;2.38;1.50;;;23.40;44.10;;;;;;5037339;28;20109;-61
2023/04/11 01:48:44;;;;;;;2.75;1.60;;;23.30;44.00;;;;;;5037440;28;20068;-62
2023/04/11 01:51:10;;;;;;;2.30;1.60;;;23.30;44.10;;;;;;5040946;28;20646;-61
2023/04/11 01:53:36;;;;;;;2.38;1.42;;;23.30;44.10;;;;;;5040859;28;20061;-61
2023/04/11 01:56:01;;;;;;;1.73;1.25;;;23.30;44.10;;;;;;5038352;28;20154;-61
2023/04/11 01:58:27;;;;;;;2.88;1.50;;;23.30;44.20;;;;;;5042344;28;20029;-61
2023/04/11 02:00:52;;;;;;;1.83;1.30;;;23.30;44.20;;;;;;5041605;28;20557;-62
2023/04/11 02:03:19;;;;;;;1.98;1.40;;;23.30;44.70;;;;;;5041456;28;20028;-61
2023/04/11 02:05:45;;;;;;;1.98;1.40;;;23.20;44.10;;;;;;5043664;28;20021;-62
2023/04/11 02:08:11;;;;;;;2.40;1.52;;;23.20;44.70;;;;;;5046424;28;20029;-61
2023/04/11 02:10:37;;;;;;;2.30;1.33;;;23.20;44.30;;;;;;5040071;28;20469;-58
2023/04/11 02:13:03;;;;;;;1.75;1.35;;;23.20;44.30;;;;;;5040094;28;20174;-61
2023/04/11 02:15:28;;;;;;;1.88;1.35;;;23.20;44.20;;;;;;5042395;28;20039;-61
2023/04/11 02:17:54;;;;;;;2.20;1.40;;;23.10;44.20;;;;;;5038385;28;20033;-61
2023/04/11 02:20:22;;;;;;;2.03;1.45;;;23.10;44.20;;;;;;5040750;28;20060;-61
2023/04/11 02:22:48;;;;;;;1.75;1.30;;;23.10;44.20;;;;;;5039666;28;20035;-61
2023/04/11 02:25:14;;;;;;;2.13;1.50;;;23.10;44.30;;;;;;5038541;28;20037;-61
2023/04/11 02:27:40;;;;;;;1.83;1.20;;;23.10;44.30;;;;;;5041159;28;20041;-61
2023/04/11 02:30:06;;;;;;;1.95;1.33;;;23.10;44.30;;;;;;5039168;28;20040;-61
2023/04/11 02:32:34;;;;;;;1.58;1.20;;;23.10;44.40;;;;;;5038869;28;20041;-61
2023/04/11 02:34:59;;;;;;;1.98;1.30;;;23.00;44.30;;;;;;5037253;28;20045;-61
2023/04/11 02:37:25;;;;;;;1.83;1.30;;;23.00;44.40;;;;;;5040860;28;20520;-62
2023/04/11 02:39:53;;;;;;;2.38;1.60;;;23.00;44.40;;;;;;5038051;28;20033;-62
2023/04/11 02:42:18;;;;;;;1.40;1.10;;;23.00;44.40;;;;;;5040078;28;20079;-61
2023/04/11 02:44:44;;;;;;;1.73;1.40;;;23.00;44.40;;;;;;5041478;28;20029;-61
2023/04/11 02:47:10;;;;;;;2.10;1.30;;;23.00;44.40;;;;;;5039486;28;20061;-61
2023/04/11 02:49:35;;;;;;;2.00;1.20;;;22.90;44.40;;;;;;5038260;28;20108;-61
2023/04/11 02:52:01;;;;;;;1.80;1.20;;;22.90;44.40;;;;;;5040421;28;20083;-61
2023/04/11 02:54:27;;;;;;;1.55;1.10;;;22.90;44.40;;;;;;5040194;28;20044;-61
2023/04/11 02:56:54;;;;;;;1.70;1.25;;;22.90;44.50;;;;;;5037583;28;20392;-62
2023/04/11 02:59:20;;;;;;;1.73;1.30;;;22.90;44.50;;;;;;5039403;28;20029;-62
2023/04/11 03:01:46;;;;;;;1.75;1.23;;;22.90;44.50;;;;;;5039890;28;20032;-61
2023/04/11 03:04:11;;;;;;;1.77;1.27;;;22.90;44.50;;;;;;5038238;28;20322;-62
2023/04/11 03:06:38;;;;;;;1.58;1.10;;;22.90;44.50;;;;;;5038862;28;20029;-61
2023/04/11 03:09:03;;;;;;;2.30;1.40;;;22.90;44.60;;;;;;5036914;28;20022;-62
2023/04/11 03:11:29;;;;;;;2.22;1.30;;;22.90;44.50;;;;;;5041137;28;20397;-62
2023/04/11 03:13:55;;;;;;;1.48;1.10;;;22.80;44.50;;;;;;5037439;28;20139;-61
2023/04/11 03:16:21;;;;;;;1.60;1.20;;;22.90;44.60;;;;;;5039095;28;20044;-62
2023/04/11 03:18:46;;;;;;;2.00;1.20;;;22.80;44.60;;;;;;5038097;28;20365;-61
2023/04/11 03:21:12;;;;;;;1.60;1.30;;;22.80;44.60;;;;;;5042040;28;20025;-61
2023/04/11 03:23:38;;;;;;;1.95;1.30;;;22.80;44.60;;;;;;5038925;28;20040;-62
2023/04/11 03:26:05;;;;;;;2.10;1.20;;;22.80;44.60;;;;;;5038641;28;20719;-61
2023/04/11 03:28:30;;;;;;;1.90;1.30;;;22.80;44.70;;;;;;5042181;28;20497;-61
2023/04/11 03:30:56;;;;;;;1.95;1.35;;;22.80;44.70;;;;;;5043972;28;20021;-62
2023/04/11 03:33:22;;;;;;;1.70;1.30;;;22.70;44.70;;;;;;5041877;28;20337;-61
2023/04/11 03:35:47;;;;;;;1.55;1.20;;;22.70;44.70;;;;;;5041342;28;20452;-61
2023/04/11 03:38:13;;;;;;;2.00;1.40;;;22.70;44.70;;;;;;5037103;28;20038;-61
2023/04/11 03:40:39;;;;;;;1.77;1.30;;;22.70;44.70;;;;;;5037302;28;20461;-62
2023/04/11 03:43:05;;;;;;;1.33;1.10;;;22.70;44.70;;;;;;5038599;28;20132;-61
2023/04/11 03:45:31;;;;;;;1.98;1.23;;;22.70;44.70;;;;;;5042402;28;20106;-61
2023/04/11 03:47:56;;;;;;;1.90;1.40;;;22.70;44.70;;;;;;5041161;28;20032;-62
2023/04/11 03:50:22;;;;;;;1.55;1.20;;;22.70;45.30;;;;;;5041171;28;20029;-62
2023/04/11 03:52:48;;;;;;;1.63;1.20;;;22.70;44.80;;;;;;5044411;28;20029;-62
2023/04/11 03:55:13;;;;;;;1.80;1.23;;;22.70;44.80;;;;;;5041817;28;20435;-62
2023/04/11 03:57:39;;;;;;;2.28;1.30;;;22.60;44.70;;;;;;5040020;28;20034;-62
2023/04/11 04:00:05;;;;;;;1.90;1.25;;;22.70;44.80;;;;;;5043153;28;20393;-62
2023/04/11 04:02:31;;;;;;;1.50;1.13;;;22.70;44.80;;;;;;5041266;28;20040;-62
2023/04/11 04:05:00;;;;;;;1.52;1.20;;;22.70;44.80;;;;;;5038027;28;20033;-62
2023/04/11 04:07:26;;;;;;;1.90;1.30;;;22.60;44.80;;;;;;5040233;28;20017;-62
2023/04/11 04:09:52;;;;;;;1.98;1.30;;;22.60;44.80;;;;;;5045697;28;20025;-62
2023/04/11 04:12:21;;;;;;;1.67;1.20;;;22.60;44.80;;;;;;5043531;28;20037;-62
2023/04/11 04:14:47;;;;;;;1.55;1.20;;;22.60;44.80;;;;;;5040689;28;20037;-62
2023/04/11 04:17:14;;;;;;;1.85;1.25;;;22.60;44.90;;;;;;5044426;28;20457;-61
2023/04/11 04:19:40;;;;;;;1.55;1.20;;;22.60;44.90;;;;;;5040852;28;20059;-62
2023/04/11 04:22:10;;;;;;;1.70;1.20;;;22.60;44.90;;;;;;5042694;28;20029;-62
2023/04/11 04:24:40;;;;;;;1.60;1.10;;;22.60;44.90;;;;;;5040485;28;20025;-62
2023/04/11 04:27:09;;;;;;;1.83;1.30;;;22.60;44.90;;;;;;5042877;28;20103;-62
2023/04/11 04:29:45;;;;;;;1.27;1.08;;;22.60;44.90;;;;;;5041660;28;20473;-62
2023/04/11 04:32:19;;;;;;;1.55;1.10;;;22.60;45.00;;;;;;5040253;28;20041;-62
2023/04/11 04:34:48;;;;;;;2.05;1.40;;;22.60;44.90;;;;;;5037398;28;20030;-62
2023/04/11 04:37:23;;;;;;;1.70;1.20;;;22.60;44.90;;;;;;5041743;28;20084;-62
2023/04/11 04:39:53;;;;;;;1.52;1.13;;;22.60;45.00;;;;;;5043962;28;20021;-62
2023/04/11 04:42:23;;;;;;;1.80;1.33;;;22.60;45.00;;;;;;5041880;28;20096;-62
2023/04/11 04:44:49;;;;;;;1.60;1.20;;;22.60;45.00;;;;;;5040661;28;20021;-63
2023/04/11 04:47:15;;;;;;;2.05;1.30;;;22.50;44.90;;;;;;5041762;28;20029;-63
2023/04/11 04:49:42;;;;;;;1.60;1.20;;;22.50;44.90;;;;;;5041733;28;20443;-63
2023/04/11 04:52:08;;;;;;;1.88;1.20;;;22.50;44.90;;;;;;5041054;28;20040;-63
2023/04/11 04:54:34;;;;;;;1.63;1.10;;;22.50;45.00;;;;;;5042968;28;20374;-63
2023/04/11 04:57:00;;;;;;;1.67;1.25;;;22.50;45.00;;;;;;5041432;28;20033;-63
2023/04/11 04:59:26;;;;;;;1.80;1.20;;;22.50;45.00;;;;;;5040119;28;20032;-63
2023/04/11 05:01:52;;;;;;;1.60;1.10;;;22.50;45.00;;;;;;5042762;28;20477;-64
2023/04/11 05:04:19;;;;;;;1.30;1.00;;;22.50;45.00;;;;;;5039100;28;20461;-62
2023/04/11 05:06:45;;;;;;;1.35;1.08;;;22.50;45.00;;;;;;5041139;28;20025;-63
2023/04/11 05:09:11;;;;;;;1.33;1.05;;;22.50;45.00;;;;;;5042081;28;20497;-63
2023/04/11 05:11:37;;;;;;;1.40;1.08;;;22.50;45.00;;;;;;5042550;28;20013;-63
2023/04/11 05:14:02;;;;;;;1.48;1.10;;;22.50;45.10;;;;;;5041008;28;20515;-64
2023/04/11 05:16:28;;;;;;;1.25;1.00;;;22.50;45.10;;;;;;5040487;28;20555;-64
2023/04/11 05:18:54;;;;;;;1.17;0.98;;;22.50;45.10;;;;;;5037912;28;20041;-63
2023/04/11 05:21:21;;;;;;;1.17;1.00;;;22.50;45.10;;;;;;5039480;28;20052;-64
2023/04/11 05:23:46;;;;;;;1.75;1.30;;;22.40;45.10;;;;;;5039788;28;20025;-63
2023/04/11 05:26:12;;;;;;;1.70;1.30;;;22.50;45.10;;;;;;5040391;28;20036;-64
2023/04/11 05:28:38;;;;;;;1.13;1.00;;;22.50;45.10;;;;;;5039235;28;20095;-62
2023/04/11 05:31:04;;;;;;;1.75;1.10;;;22.50;45.20;;;;;;5039583;28;20108;-62
2023/04/11 05:33:30;;;;;;;1.20;1.10;;;22.40;45.10;;;;;;5041320;28;20105;-64
2023/04/11 05:35:55;;;;;;;1.30;1.02;;;22.40;45.20;;;;;;5039345;28;20392;-64
2023/04/11 05:38:21;;;;;;;1.48;1.08;;;22.40;45.10;;;;;;5038715;28;20079;-63
2023/04/11 05:40:47;;;;;;;1.50;1.00;;;22.40;45.20;;;;;;5040363;28;20326;-63
2023/04/11 05:43:13;;;;;;;1.58;1.17;;;22.40;45.20;;;;;;5041166;28;20037;-64
2023/04/11 05:45:46;;;;;;;1.77;1.02;;;22.50;45.20;;;;;;5038640;28;20476;-64
2023/04/11 05:48:13;;;;;;;1.33;0.95;;;22.40;45.20;;;;;;5039686;28;20021;-64
2023/04/11 05:50:39;;;;;;;1.42;1.00;;;22.40;45.20;;;;;;5040241;28;20083;-64
2023/04/11 05:53:06;;;;;;;1.20;1.00;;;22.40;45.20;;;;;;5039555;28;20025;-64
2023/04/11 05:55:31;;;;;;;1.10;0.90;;;22.40;45.20;;;;;;5040866;28;20512;-63
2023/04/11 05:57:57;;;;;;;1.48;1.10;;;22.40;45.20;;;;;;5036459;28;20061;-64
2023/04/11 06:00:24;;;;;;;1.20;0.98;;;22.40;45.30;;;;;;5039320;28;20045;-63
2023/04/11 06:02:51;;;;;;;1.58;1.02;;;22.40;45.30;;;;;;5040071;28;20041;-63
2023/04/11 06:05:17;;;;;;;2.03;1.10;;;22.40;45.30;;;;;;5039495;28;20021;-64
2023/04/11 06:07:43;;;;;;;1.60;0.95;;;22.40;45.30;;;;;;5039502;28;20473;-64
2023/04/11 06:10:09;;;;;;;2.38;0.95;;;22.30;45.20;;;;;;5039906;28;20330;-64
2023/04/11 06:12:35;;;;;;;1.17;1.00;;;22.40;45.30;;;;;;5039345;28;20022;-64
2023/04/11 06:15:01;;;;;;;2.08;1.10;;;22.40;45.30;;;;;;5037335;28;20036;-64
2023/04/11 06:17:27;;;;;;;1.23;1.10;;;22.30;45.30;;;;;;5038993;28;20026;-64
2023/04/11 06:19:52;;;;;;;1.50;1.10;;;22.30;45.30;;;;;;5039806;28;20052;-63
2023/04/11 06:22:18;;;;;;;1.20;1.00;;;22.30;45.30;;;;;;5043032;28;20129;-63
2023/04/11 06:24:47;;;;;;;1.85;1.20;;;22.40;45.30;;;;;;5039360;28;20028;-63
2023/04/11 06:27:13;;;;;;;1.58;1.10;;;22.30;45.30;;;;;;5040355;28;20471;-63
2023/04/11 06:29:42;;;;;;;1.35;0.95;;;22.30;45.30;;;;;;5039379;28;20029;-64
2023/04/11 06:32:09;;;;;;;1.15;0.95;;;22.30;45.30;;;;;;5039566;28;20116;-63
2023/04/11 06:34:35;;;;;;;1.33;0.95;;;22.30;45.30;;;;;;5037763;28;20120;-63
2023/04/11 06:37:01;;;;;;;1.60;1.10;;;22.40;45.40;;;;;;5037720;28;20529;-63
2023/04/11 06:39:26;;;;;;;1.48;1.00;;;22.30;45.30;;;;;;5039920;28;20347;-63
2023/04/11 06:41:52;;;;;;;1.40;1.00;;;22.30;45.30;;;;;;5039984;28;20029;-64
2023/04/11 06:44:17;;;;;;;1.27;1.08;;;22.30;45.40;;;;;;5040007;28;20053;-63
2023/04/11 06:46:43;;;;;;;0.90;0.80;;;22.30;45.30;;;;;;5036086;28;20034;-63
2023/04/11 06:49:10;;;;;;;1.58;1.10;;;22.30;45.40;;;;;;5041073;28;20473;-63
2023/04/11 06:51:36;;;;;;;1.52;1.02;;;22.30;45.30;;;;;;5037795;28;20176;-63
2023/04/11 06:54:02;;;;;;;1.80;1.10;;;22.40;45.40;;;;;;5037818;28;20531;-63
2023/04/11 06:56:28;;;;;;;1.58;1.00;;;22.30;45.30;;;;;;5042749;28;20033;-61
2023/04/11 06:58:53;;;;;;;1.70;1.00;;;22.30;45.30;;;;;;5036875;28;20061;-61
2023/04/11 07:01:24;;;;;;;1.85;1.13;;;22.30;45.30;;;;;;5035779;28;20060;-61
2023/04/11 07:03:52;;;;;;;1.48;1.00;;;22.30;45.30;;;;;;5038935;28;20025;-61
2023/04/11 07:06:22;;;;;;;1.73;1.10;;;22.30;45.30;;;;;;5037085;28;20107;-61
2023/04/11 07:08:47;;;;;;;1.30;0.90;;;22.30;45.30;;;;;;5037257;28;20291;-61
2023/04/11 07:11:13;;;;;;;1.75;1.00;;;22.30;45.30;;;;;;5035826;28;20479;-62
2023/04/11 07:13:39;;;;;;;1.23;0.90;;;22.30;45.20;;;;;;5039504;28;20032;-61
2023/04/11 07:16:05;;;;;;;2.08;1.00;;;22.40;45.30;;;;;;5038280;28;20108;-63
2023/04/11 07:18:30;;;;;;;1.25;0.95;;;22.30;45.20;;;;;;5039209;28;20087;-64
2023/04/11 07:20:56;;;;;;;0.95;0.80;;;22.30;45.20;;;;;;5039993;28;20035;-63
2023/04/11 07:23:22;;;;;;;1.70;1.00;;;22.30;45.30;;;;;;5040263;28;20540;-64
2023/04/11 07:25:48;;;;;;;1.35;0.90;;;22.30;45.20;;;;;;5037975;28;20052;-63
2023/04/11 07:28:14;;;;;;;1.08;0.80;;;22.30;45.20;;;;;;5040483;28;20037;-64
2023/04/11 07:30:40;;;;;;;1.38;0.90;;;22.30;45.20;;;;;;5038707;28;20087;-63
2023/04/11 07:33:05;;;;;;;1.63;1.00;;;22.30;45.20;;;;;;5037768;28;20044;-63
2023/04/11 07:35:33;;;;;;;1.73;1.00;;;22.30;45.20;;;;;;5039093;28;20360;-63
2023/04/11 07:38:00;;;;;;;1.35;0.88;;;22.30;45.20;;;;;;5041669;28;20039;-63
2023/04/11 07:40:26;;;;;;;1.50;0.90;;;22.30;45.20;;;;;;5038567;28;20064;-63
2023/04/11 07:42:52;;;;;;;1.80;1.10;;;22.30;45.20;;;;;;5038967;28;20082;-63
2023/04/11 07:45:17;;;;;;;1.80;1.00;;;22.30;45.20;;;;;;5039069;28;20485;-63
2023/04/11 07:47:43;;;;;;;1.52;0.98;;;22.30;45.20;;;;;;5038983;28;20146;-63
2023/04/11 07:50:09;;;;;;;0.98;0.82;;;22.30;45.20;;;;;;5038491;28;20021;-62
2023/04/11 07:52:35;;;;;;;1.23;0.93;;;22.20;45.20;;;;;;5040617;28;20033;-63
2023/04/11 07:55:01;;;;;;;1.30;0.82;;;22.30;45.20;;;;;;5035914;28;20033;-63
2023/04/11 07:57:28;;;;;;;1.73;1.00;;;22.20;45.20;;;;;;5039987;28;20503;-63
2023/04/11 07:59:53;;;;;;;1.13;0.80;;;22.30;45.20;;;;;;5037948;28;20428;-63
2023/04/11 08:02:19;;;;;;;1.00;0.90;;;22.20;45.20;;;;;;5036903;28;20029;-64
2023/04/11 08:04:44;;;;;;;1.23;1.00;;;22.20;45.20;;;;;;5037962;28;20048;-63
2023/04/11 08:07:10;;;;;;;1.02;0.80;;;22.30;45.80;;;;;;5037577;28;20450;-63
2023/04/11 08:09:36;;;;;;;1.50;1.02;;;22.30;45.20;;;;;;5039130;28;20107;-63
2023/04/11 08:12:03;;;;;;;1.08;0.90;;;22.20;45.20;;;;;;5041136;28;20082;-63
2023/04/11 08:14:29;;;;;;;1.15;0.85;;;22.20;45.20;;;;;;5043708;28;20029;-63
2023/04/11 08:16:54;;;;;;;1.08;0.90;;;22.30;45.20;;;;;;5043460;28;20075;-63
2023/04/11 08:19:20;;;;;;;1.10;0.80;;;22.20;45.20;;;;;;5043373;28;20026;-63
2023/04/11 08:21:46;;;;;;;1.35;0.90;;;22.20;45.20;;;;;;5043339;28;20037;-63
2023/04/11 08:24:11;;;;;;;1.90;1.00;;;22.20;45.20;;;;;;5041396;28;20505;-63
2023/04/11 08:26:37;;;;;;;1.05;0.80;;;22.20;45.20;;;;;;5042743;28;20021;-63
2023/04/11 08:29:02;;;;;;;1.35;0.82;;;22.20;45.20;;;;;;5041407;28;20029;-66
2023/04/11 08:31:28;;;;;;;1.85;0.85;;;22.20;45.20;;;;;;5041667;28;20036;-64
2023/04/11 08:33:54;;;;;;;2.10;1.00;;;22.20;45.30;;;;;;5041831;28;20443;-63
2023/04/11 08:36:20;;;;;;;1.23;0.85;;;22.20;45.40;;;;;;5040138;28;20378;-63
2023/04/11 08:38:46;;;;;;;1.10;0.90;;;22.20;45.30;;;;;;5041971;28;20025;-62
2023/04/11 08:41:13;;;;;;;1.77;1.00;;;22.30;45.30;;;;;;5042388;28;20044;-63
2023/04/11 08:43:39;;;;;;;1.30;0.80;;;22.30;45.40;;;;;;5046061;28;20025;-63
2023/04/11 08:46:08;;;;;;;1.00;0.80;;;22.30;45.40;;;;;;5044277;28;20366;-62
2023/04/11 08:48:34;;;;;;;1.05;0.90;;;22.40;45.40;;;;;;5042707;28;20958;-63
2023/04/11 08:51:00;;;;;;;2.35;0.90;;;22.30;45.90;;;;;;5041212;28;20019;-63
2023/04/11 08:53:26;;;;;;;1.02;0.85;;;22.30;45.30;;;;;;5042724;28;20038;-63
2023/04/11 08:55:52;;;;;;;1.30;0.80;;;22.30;45.30;;;;;;5043608;28;20094;-63
2023/04/11 08:58:19;;;;;;;1.48;0.98;;;22.40;45.30;;;;;;5043315;28;20030;-63
2023/04/11 09:00:44;;;;;;;2.03;1.02;;;22.40;45.30;;;;;;5043150;28;20029;-63
2023/04/11 09:03:11;;;;;;;1.52;0.90;;;22.50;45.40;;;;;;5044987;28;20036;-62
2023/04/11 09:05:39;;;;;;;1.77;1.05;;;22.50;45.30;;;;;;5041050;28;20033;-63
2023/04/11 09:08:09;;;;;;;1.92;1.00;;;22.50;45.30;;;;;;5041691;28;20095;-62
2023/04/11 09:10:36;;;;;;;1.50;1.10;;;22.50;45.20;;;;;;5039768;28;20452;-63
2023/04/11 09:13:26;;;;;;;1.95;1.10;;;22.60;45.20;;;;;;5040523;28;20112;-63
2023/04/11 09:16:12;;;;;;;1.30;0.90;;;22.60;45.10;;;;;;5042002;28;20540;-62
2023/04/11 09:18:42;;;;;;;2.10;1.00;;;22.60;45.20;;;;;;5040363;28;20037;-63
2023/04/11 09:21:11;;;;;;;1.88;1.20;;;22.70;45.10;;;;;;5040958;28;20033;-63
2023/04/11 09:23:37;;;;;;;2.03;1.10;;;22.70;45.10;;;;;;5037188;28;20030;-63
2023/04/11 09:26:07;;;;;;;2.03;1.00;;;22.70;45.10;;;;;;5042032;28;20159;-62
2023/04/11 09:28:52;;;;;;;1.85;1.00;;;22.70;45.10;;;;;;5039363;28;20038;-63
2023/04/11 09:31:18;;;;;;;1.50;0.90;;;22.70;45.00;;;;;;5041640;28;20550;-63
2023/04/11 09:33:55;;;;;;;1.58;0.90;;;22.70;45.10;;;;;;5042166;28;20400;-62
2023/04/11 09:36:22;;;;;;;1.60;1.02;;;22.80;45.10;;;;;;5041155;28;20126;-63
2023/04/11 09:38:48;;;;;;;1.38;1.00;;;22.80;45.00;;;;;;5041359;28;20477;-63
2023/04/11 09:41:14;;;;;;;2.10;0.93;;;22.90;45.00;;;;;;5043026;28;20030;-61
2023/04/11 09:43:51;;;;;;;1.13;0.80;;;22.90;45.00;;;;;;5039053;28;20039;-61
2023/04/11 09:46:19;;;;;;;1.92;0.90;;;22.90;45.00;;;;;;5039394;28;20534;-62
2023/04/11 09:48:46;;;;;;;1.50;1.00;;;22.90;44.90;;;;;;5040086;28;20568;-62
2023/04/11 09:51:12;;;;;;;1.35;0.90;;;23.00;44.80;;;;;;5040709;28;20385;-62
2023/04/11 09:53:37;;;;;;;1.77;1.00;;;23.00;44.70;;;;;;5041752;28;20030;-62
2023/04/11 09:56:05;;;;;;;1.60;1.00;;;23.00;44.60;;;;;;5039735;28;20083;-62
2023/04/11 09:58:32;;;;;;;3.38;1.40;;;23.00;44.60;;;;;;5039867;28;20048;-63
2023/04/11 10:01:02;;;;;;;1.80;0.80;;;23.00;44.50;;;;;;5042142;28;20040;-62
2023/04/11 10:03:33;;;;;;;;;;;23.10;44.50;;;;;;5040636;28;20434;-62
2023/04/11 10:06:01;;;;;;;1.65;0.90;;;23.10;44.40;;;;;;5038656;28;19915;-62
2023/04/11 10:08:32;;;;;;;1.35;1.00;;;23.10;44.40;;;;;;5041591;28;20024;-62
2023/04/11 10:11:03;;;;;;;1.60;0.90;;;23.10;44.40;;;;;;5038759;28;20052;-63
2023/04/11 10:13:44;;;;;;;0.90;0.80;;;23.20;44.40;;;;;;5041155;28;20477;-61
2023/04/11 10:16:14;;;;;;;1.40;1.00;;;23.10;44.40;;;;;;5040157;28;20057;-61
2023/04/11 10:19:06;;;;;;;1.50;1.00;;;23.20;44.40;;;;;;5034721;28;20025;-62
2023/04/11 10:21:31;;;;;;;1.45;0.90;;;23.20;44.40;;;;;;5036393;28;20029;-61
2023/04/11 10:24:17;;;;;;;1.48;1.00;;;23.20;44.40;;;;;;5040726;28;20025;-61
2023/04/11 10:26:57;;;;;;;1.60;1.00;;;23.20;44.30;;;;;;5038477;28;20535;-61
2023/04/11 10:29:32;;;;;;;2.30;1.00;;;23.20;44.30;;;;;;5043714;28;20116;-62
2023/04/11 10:32:07;;;;;;;1.23;0.90;;;23.20;44.30;;;;;;5039745;28;20053;-61
2023/04/11 10:34:37;;;;;;;1.77;1.08;;;23.20;44.20;;;;;;5042960;28;20060;-61
2023/04/11 10:37:06;;;;;;;1.80;1.00;;;23.20;44.20;;;;;;5040873;28;20473;-60
2023/04/11 10:39:50;;;;;;;1.15;0.85;;;23.20;44.30;;;;;;5039418;28;20032;-61
2023/04/11 10:42:31;;;;;;;1.60;0.80;;;23.20;44.20;;;;;;5039296;28;20138;-62
2023/04/11 10:45:31;;;;;;;1.30;0.95;;;23.20;44.30;;;;;;5039363;28;20040;-61
2023/04/11 10:48:09;;;;;;;1.60;0.90;;;23.20;44.30;;;;;;5036947;28;20110;-61
2023/04/11 10:50:43;;;;;;;1.33;0.82;;;23.20;44.30;;;;;;5040958;28;20385;-62
2023/04/11 10:53:32;;;;;;;1.60;0.90;;;23.20;44.40;;;;;;5042620;28;20488;-59
2023/04/11 10:55:59;;;;;;;1.80;0.95;;;23.20;44.30;;;;;;5041386;28;20033;-62
2023/04/11 10:58:39;;;;;;;1.60;0.90;;;23.20;44.40;;;;;;5040213;28;20064;-61
2023/04/11 11:01:15;;;;;;;1.95;0.70;;;23.20;44.40;;;;;;5035488;28;20444;-61
2023/04/11 11:03:51;;;;;;;1.00;0.80;;;23.20;44.40;;;;;;5038491;28;20415;-61
2023/04/11 11:06:17;;;;;;;1.40;0.80;;;23.20;44.40;;;;;;5036562;28;20497;-60
2023/04/11 11:08:45;;;;;;;1.13;0.80;;;23.20;44.40;;;;;;5039697;28;20028;-59
2023/04/11 11:11:12;;;;;;;1.65;0.95;;;23.20;44.50;;;;;;5041618;28;20029;-60
2023/04/11 11:13:39;;;;;;;1.40;0.90;;;23.10;44.40;;;;;;5039069;28;20083;-59
2023/04/11 11:16:05;;;;;;;1.10;0.80;;;23.10;44.40;;;;;;5037790;28;20548;-59
2023/04/11 11:18:31;;;;;;;1.35;0.73;;;23.20;44.50;;;;;;5039821;28;20048;-59
2023/04/11 11:20:57;;;;;;;0.75;0.60;;;23.10;44.50;;;;;;5032498;28;20107;-59
2023/04/11 11:23:22;;;;;;;2.50;0.90;;;23.10;44.50;;;;;;5039305;28;20040;-59
2023/04/11 11:25:55;;;;;;;1.40;0.82;;;23.20;44.60;;;;;;5041208;28;20025;-59
2023/04/11 11:28:21;;;;;;;1.10;0.88;;;23.10;44.50;;;;;;5039052;28;20489;-59
2023/04/11 11:30:51;;;;;;;1.45;0.90;;;23.20;44.60;;;;;;5039883;28;20481;-59
2023/04/11 11:33:25;;;;;;;1.45;0.80;;;23.10;44.60;;;;;;5036721;28;20063;-59
2023/04/11 11:35:54;;;;;;;2.00;0.90;;;23.20;44.60;;;;;;5041905;28;20369;-60
2023/04/11 11:38:23;;;;;;;1.67;0.80;;;23.10;44.60;;;;;;5038562;28;20040;-59
2023/04/11 11:40:49;;;;;;;2.45;0.70;;;23.10;44.60;;;;;;5037815;28;20033;-59
2023/04/11 11:43:16;;;;;;;1.30;0.70;;;23.10;44.70;;;;;;5039589;28;20153;-60
2023/04/11 11:45:42;;;;;;;0.65;0.60;;;23.10;44.70;;;;;;5038295;28;20021;-59
2023/04/11 11:48:19;;;;;;;1.00;0.70;;;23.10;44.70;;;;;;5044534;28;20086;-59
2023/04/11 11:50:44;;;;;;;0.80;0.70;;;23.10;44.80;;;;;;5040904;28;20131;-59
2023/04/11 11:53:13;;;;;;;1.33;0.70;;;23.10;44.80;;;;;;5040276;28;20068;-59
2023/04/11 11:55:39;;;;;;;1.05;0.80;;;23.10;44.90;;;;;;5042294;28;20037;-59
2023/04/11 11:58:05;;;;;;;1.77;0.90;;;23.10;44.90;;;;;;5043460;28;20496;-60
2023/04/11 12:00:37;;;;;;;0.90;0.60;;;23.10;44.90;;;;;;5045487;28;20037;-57
2023/04/11 12:03:05;;;;;;;0.95;0.70;;;23.10;44.90;;;;;;5041833;28;20307;-59
2023/04/11 12:05:32;;;;;;;1.35;0.70;;;23.10;44.90;;;;;;5041548;28;20025;-59
2023/04/11 12:08:01;;;;;;;1.10;0.77;;;23.10;44.90;;;;;;5041574;28;20098;-60
2023/04/11 12:10:44;;;;;;;1.10;0.80;;;23.10;45.00;;;;;;5042771;28;20033;-58
2023/04/11 12:13:25;;;;;;;1.45;0.98;;;23.10;45.00;;;;;;5039675;28;20039;-58
2023/04/11 12:15:54;;;;;;;1.10;0.80;;;23.10;45.00;;;;;;5041805;28;20119;-58
2023/04/11 12:18:24;;;;;;;1.55;0.60;;;23.10;45.00;;;;;;5041845;28;20040;-58
2023/04/11 12:20:51;;;;;;;0.73;0.60;;;23.20;45.10;;;;;;5041510;28;20029;-60
2023/04/11 12:23:18;;;;;;;1.48;0.80;;;23.10;45.10;;;;;;5041395;28;20730;-60
2023/04/11 12:25:45;;;;;;;1.05;0.70;;;23.10;45.10;;;;;;5042001;28;20028;-60
2023/04/11 12:28:12;;;;;;;2.47;0.70;;;23.20;45.10;;;;;;5045245;28;20485;-61
2023/04/11 12:30:38;;;;;;;1.23;0.70;;;23.20;45.10;;;;;;5044175;28;20123;-60
2023/04/11 12:33:05;;;;;;;1.27;0.80;;;23.20;45.00;;;;;;5041725;28;20041;-60
2023/04/11 12:35:31;;;;;;;1.65;0.70;;;23.20;45.00;;;;;;5039705;28;20117;-61
2023/04/11 12:37:57;;;;;;;1.15;0.70;;;23.10;44.80;;;;;;5037272;28;20037;-60
2023/04/11 12:40:24;;;;;;;1.17;0.80;;;23.20;44.90;;;;;;5042763;28;20029;-60
2023/04/11 12:42:50;;;;;;;1.20;0.70;;;23.10;44.80;;;;;;5041429;28;20033;-61
2023/04/11 12:45:16;;;;;;;1.10;0.70;;;23.20;45.00;;;;;;5040272;28;20033;-60
2023/04/11 12:47:42;;;;;;;1.70;0.73;;;23.20;45.30;;;;;;5043093;28;20033;-59
2023/04/11 12:50:09;;;;;;;1.33;0.80;;;23.20;44.80;;;;;;5051260;28;20025;-60